Time;durP1;ratioP1;P1;durP2;ratioP2;P2;SDS_P1;SDS_P2;PMS_P1;PMS_P2;Temp;Humidity;BMP_temperature;BMP_pressure;BME280_temperature;BME280_humidity;BME280_pressure;Samples;Min_cycle;Max_cycle;Signal;HPM_P1;HPM_P2
2021/12/06 00:01:59;;;;;;;50.05;24.02;;;3.00;79.30;;;;;;5039059;28;20030;-35
2021/12/06 00:04:30;;;;;;;54.10;26.45;;;3.00;79.30;;;;;;5039309;28;20310;-35
2021/12/06 00:07:03;;;;;;;46.72;23.33;;;3.10;79.30;;;;;;5039173;28;20025;-34
2021/12/06 00:09:30;;;;;;;47.75;23.48;;;3.10;79.30;;;;;;5039133;28;20437;-35
2021/12/06 00:11:59;;;;;;;51.28;23.95;;;3.10;79.40;;;;;;5039285;28;20033;-38
2021/12/06 00:14:29;;;;;;;47.15;23.83;;;3.10;79.40;;;;;;5039437;28;20034;-34
2021/12/06 00:17:00;;;;;;;46.85;21.90;;;3.10;79.40;;;;;;5039357;28;20021;-46
2021/12/06 00:19:26;;;;;;;;;;;3.10;79.30;;;;;;5039820;28;20358;-45
2021/12/06 00:21:53;;;;;;;47.25;22.38;;;3.10;79.20;;;;;;5039114;28;19979;-34
2021/12/06 00:24:18;;;;;;;47.80;24.25;;;3.10;79.20;;;;;;5039131;28;20116;-46
2021/12/06 00:26:44;;;;;;;49.72;23.75;;;3.10;79.30;;;;;;5039006;28;20108;-33
2021/12/06 00:29:10;;;;;;;47.63;22.42;;;3.10;79.30;;;;;;5039220;28;20299;-34
2021/12/06 00:31:37;;;;;;;46.63;23.65;;;3.00;79.30;;;;;;5039031;28;20124;-38
2021/12/06 00:34:08;;;;;;;48.92;23.83;;;3.10;79.40;;;;;;5038962;28;20116;-34
2021/12/06 00:36:37;;;;;;;43.28;20.55;;;3.00;79.50;;;;;;5038560;28;20108;-38
2021/12/06 00:39:06;;;;;;;45.25;22.63;;;3.10;79.60;;;;;;5038945;28;20060;-33
2021/12/06 00:41:32;;;;;;;48.67;23.70;;;3.00;79.50;;;;;;5038660;28;20022;-45
2021/12/06 00:43:59;;;;;;;49.38;21.85;;;3.00;79.60;;;;;;5038871;28;20030;-45
2021/12/06 00:46:25;;;;;;;48.03;23.38;;;3.00;79.60;;;;;;5038786;28;20068;-46
2021/12/06 00:48:51;;;;;;;49.50;23.42;;;3.00;79.70;;;;;;5038343;28;20038;-35
2021/12/06 00:51:17;;;;;;;52.63;24.52;;;3.00;79.60;;;;;;5038474;28;20025;-46
2021/12/06 00:53:45;;;;;;;51.30;24.20;;;3.10;79.70;;;;;;5038243;28;20041;-46
2021/12/06 00:56:11;;;;;;;47.17;23.88;;;3.10;79.80;;;;;;5038562;28;20017;-34
2021/12/06 00:58:38;;;;;;;50.25;22.38;;;3.10;79.80;;;;;;5038324;28;20037;-46
2021/12/06 01:01:04;;;;;;;44.80;23.17;;;3.10;79.80;;;;;;5038672;28;20026;-37
2021/12/06 01:03:34;;;;;;;52.40;23.63;;;3.10;79.90;;;;;;5038172;28;20040;-46
2021/12/06 01:06:00;;;;;;;53.80;24.52;;;3.10;80.00;;;;;;5038193;28;20030;-46
2021/12/06 01:08:26;;;;;;;48.60;22.50;;;3.10;80.00;;;;;;5038148;28;20029;-46
2021/12/06 01:10:53;;;;;;;49.70;22.52;;;3.10;80.00;;;;;;5037911;28;20053;-33
2021/12/06 01:13:20;;;;;;;50.03;24.15;;;3.10;79.90;;;;;;5038084;28;20041;-45
2021/12/06 01:15:46;;;;;;;54.55;24.05;;;3.10;79.90;;;;;;5038149;28;20084;-46
2021/12/06 01:18:19;;;;;;;47.33;22.10;;;3.10;79.90;;;;;;5037886;28;20409;-46
2021/12/06 01:20:53;;;;;;;55.88;24.95;;;3.10;80.00;;;;;;5037881;28;20037;-33
2021/12/06 01:23:22;;;;;;;56.85;23.90;;;3.10;80.10;;;;;;5038021;28;20532;-46
2021/12/06 01:29:05;;;;;;;53.55;24.25;;;3.10;80.30;;;;;;5037991;28;20091;-46
2021/12/06 01:31:51;;;;;;;53.03;23.63;;;3.10;80.20;;;;;;5037955;28;20033;-45
2021/12/06 01:39:35;;;;;;;56.80;24.27;;;3.10;80.40;;;;;;5038057;28;20052;-33
2021/12/06 01:42:04;;;;;;;56.03;25.35;;;3.10;80.40;;;;;;5037843;28;20025;-35
2021/12/06 01:44:33;;;;;;;52.03;23.17;;;3.20;80.60;;;;;;5037557;28;20041;-46
2021/12/06 01:46:59;;;;;;;49.40;21.52;;;3.10;80.70;;;;;;5037750;28;20438;-46
2021/12/06 01:49:28;;;;;;;51.65;23.52;;;3.20;80.70;;;;;;5037427;28;20112;-46
2021/12/06 01:51:56;;;;;;;51.65;23.38;;;3.20;80.70;;;;;;5037240;28;20094;-33
2021/12/06 01:54:22;;;;;;;55.75;24.05;;;3.20;80.70;;;;;;5037395;28;20096;-35
2021/12/06 01:56:50;;;;;;;51.72;22.83;;;3.20;80.70;;;;;;5037390;28;20322;-45
2021/12/06 01:59:16;;;;;;;57.47;23.95;;;3.20;80.60;;;;;;5037252;28;20421;-45
2021/12/06 02:01:43;;;;;;;57.85;26.13;;;3.20;80.70;;;;;;5036008;28;20029;-46
2021/12/06 02:04:09;;;;;;;58.10;25.05;;;3.20;80.80;;;;;;5037254;28;20033;-34
2021/12/06 02:06:37;;;;;;;49.13;22.98;;;3.20;80.80;;;;;;5036989;28;20029;-34
2021/12/06 02:09:05;;;;;;;47.40;22.58;;;3.20;80.70;;;;;;5036857;28;20037;-46
2021/12/06 02:11:34;;;;;;;49.72;22.00;;;3.20;80.80;;;;;;5036967;28;20048;-35
2021/12/06 02:14:08;;;;;;;53.97;22.38;;;3.20;80.80;;;;;;5037150;28;20038;-37
2021/12/06 02:16:44;;;;;;;50.25;22.85;;;3.20;80.80;;;;;;5036635;28;20072;-33
2021/12/06 02:19:11;;;;;;;50.88;21.30;;;3.20;80.80;;;;;;5037084;28;20436;-46
2021/12/06 02:21:41;;;;;;;56.03;24.17;;;3.20;80.80;;;;;;5036661;28;20418;-45
2021/12/06 02:24:09;;;;;;;49.88;23.52;;;3.20;80.80;;;;;;5036999;28;20406;-46
2021/12/06 02:26:40;;;;;;;51.88;22.40;;;3.20;80.80;;;;;;5036580;28;20048;-35
2021/12/06 02:29:07;;;;;;;54.85;23.48;;;3.20;80.80;;;;;;5036765;28;20103;-46
2021/12/06 02:31:34;;;;;;;61.20;26.02;;;3.20;80.80;;;;;;5036771;28;20029;-35
2021/12/06 02:33:59;;;;;;;52.35;23.75;;;3.20;80.80;;;;;;5036822;28;20415;-46
2021/12/06 02:36:26;;;;;;;52.83;24.17;;;3.20;80.90;;;;;;5036368;28;20113;-36
2021/12/06 02:38:52;;;;;;;54.92;25.40;;;3.20;81.00;;;;;;5036612;28;20034;-34
2021/12/06 02:41:20;;;;;;;56.22;22.80;;;3.20;81.00;;;;;;5036439;28;20112;-45
2021/12/06 02:43:47;;;;;;;53.70;22.95;;;3.20;81.00;;;;;;5036104;28;20029;-46
2021/12/06 02:46:14;;;;;;;60.95;25.63;;;3.20;81.00;;;;;;5036581;28;20302;-34
2021/12/06 02:48:39;;;;;;;47.20;21.10;;;3.30;81.00;;;;;;5035212;28;20043;-45
2021/12/06 02:51:07;;;;;;;52.17;23.73;;;3.20;81.00;;;;;;5036271;28;20108;-36
2021/12/06 02:53:35;;;;;;;57.47;24.38;;;3.20;81.10;;;;;;5036452;28;20033;-34
2021/12/06 02:56:06;;;;;;;55.35;24.15;;;3.20;81.10;;;;;;5036544;28;20417;-33
2021/12/06 03:01:07;;;;;;;54.88;23.52;;;3.20;81.10;;;;;;5036275;28;20330;-46
2021/12/06 03:03:33;;;;;;;59.45;24.50;;;3.20;81.20;;;;;;5036020;28;20063;-46
2021/12/06 03:05:58;;;;;;;63.90;26.17;;;3.20;81.20;;;;;;5036118;28;20064;-45
2021/12/06 03:08:41;;;;;;;54.80;25.25;;;3.20;81.30;;;;;;5036000;28;20033;-34
2021/12/06 03:11:10;;;;;;;66.57;28.35;;;3.30;81.40;;;;;;5035828;28;20521;-46
2021/12/06 03:13:36;;;;;;;68.75;27.45;;;3.30;81.50;;;;;;5035777;28;20322;-45
2021/12/06 03:16:03;;;;;;;64.40;25.55;;;3.30;81.60;;;;;;5036240;28;20025;-33
2021/12/06 03:18:28;;;;;;;60.60;25.40;;;3.30;81.60;;;;;;5035847;28;20116;-45
2021/12/06 03:20:54;;;;;;;65.63;27.05;;;3.30;81.60;;;;;;5036038;28;20113;-43
2021/12/06 03:23:20;;;;;;;71.72;28.55;;;3.30;81.50;;;;;;5036016;28;20049;-45
2021/12/06 03:25:45;;;;;;;65.32;26.92;;;3.30;81.50;;;;;;5035781;28;20377;-46
2021/12/06 03:28:11;;;;;;;62.10;26.50;;;3.30;81.50;;;;;;5035993;28;20437;-46
2021/12/06 03:30:37;;;;;;;64.10;26.90;;;3.30;81.50;;;;;;5035672;28;20544;-35
2021/12/06 03:33:03;;;;;;;62.42;27.40;;;3.30;81.60;;;;;;5035677;28;20087;-36
2021/12/06 03:35:29;;;;;;;64.18;26.00;;;3.30;81.60;;;;;;5036201;28;20041;-34
2021/12/06 03:37:54;;;;;;;60.83;27.45;;;3.30;81.50;;;;;;5035828;28;20361;-46
2021/12/06 03:40:20;;;;;;;63.67;26.95;;;3.30;81.60;;;;;;5036134;28;20357;-45
2021/12/06 03:42:46;;;;;;;63.75;27.08;;;3.30;81.70;;;;;;5035747;28;20032;-33
2021/12/06 03:45:12;;;;;;;67.95;27.10;;;3.30;81.80;;;;;;5036108;28;20291;-45
2021/12/06 03:47:38;;;;;;;64.85;25.40;;;3.30;81.70;;;;;;5035591;28;20028;-45
2021/12/06 03:50:07;;;;;;;66.10;26.05;;;3.30;81.80;;;;;;5035972;28;20148;-34
2021/12/06 03:52:33;;;;;;;62.22;25.15;;;3.30;81.90;;;;;;5034330;28;20049;-46
2021/12/06 03:54:59;;;;;;;64.28;27.00;;;3.20;82.00;;;;;;5035914;28;20033;-34
2021/12/06 03:57:25;;;;;;;60.72;24.85;;;3.20;82.00;;;;;;5035788;28;20018;-38
2021/12/06 03:59:52;;;;;;;71.03;27.25;;;3.20;82.20;;;;;;5035963;28;20034;-37
2021/12/06 04:02:23;;;;;;;62.72;25.95;;;3.20;82.30;;;;;;5034495;28;20048;-46
2021/12/06 04:04:49;;;;;;;67.75;27.55;;;3.20;82.50;;;;;;5035648;28;20041;-46
2021/12/06 04:07:14;;;;;;;72.13;27.50;;;3.30;82.50;;;;;;5035403;28;20030;-46
2021/12/06 04:09:40;;;;;;;67.30;27.75;;;3.30;82.50;;;;;;5035518;28;20389;-46
2021/12/06 04:12:09;;;;;;;73.70;29.73;;;3.30;82.50;;;;;;5035851;28;20021;-34
2021/12/06 04:14:36;;;;;;;72.60;28.85;;;3.30;82.50;;;;;;5035672;28;20044;-34
2021/12/06 04:17:02;;;;;;;81.40;30.58;;;3.30;82.50;;;;;;5035648;28;20029;-38
2021/12/06 04:19:28;;;;;;;69.00;29.10;;;3.30;82.50;;;;;;5035561;28;20128;-46
2021/12/06 04:21:54;;;;;;;71.78;28.70;;;3.40;82.60;;;;;;5035611;28;20124;-46
2021/12/06 04:24:20;;;;;;;68.55;29.60;;;3.30;82.50;;;;;;5035930;28;20029;-44
2021/12/06 04:26:46;;;;;;;73.18;27.92;;;3.30;82.60;;;;;;5039186;28;20302;-46
2021/12/06 04:29:12;;;;;;;69.38;29.48;;;3.30;82.60;;;;;;5039212;28;20088;-46
2021/12/06 04:31:47;;;;;;;64.78;27.92;;;3.30;82.70;;;;;;5039105;28;20303;-46
2021/12/06 04:34:13;;;;;;;67.05;28.90;;;3.40;82.60;;;;;;5039034;28;20398;-46
2021/12/06 04:36:40;;;;;;;63.92;27.33;;;3.30;82.70;;;;;;5038616;28;20437;-33
2021/12/06 04:39:09;;;;;;;64.30;25.63;;;3.40;82.80;;;;;;5038798;28;20045;-34
2021/12/06 04:41:36;;;;;;;67.63;25.52;;;3.40;82.90;;;;;;5038763;28;20025;-45
2021/12/06 04:44:03;;;;;;;67.22;25.73;;;3.40;82.90;;;;;;5038821;28;20037;-45
2021/12/06 04:46:29;;;;;;;60.63;25.35;;;3.40;82.90;;;;;;5038761;28;20410;-46
2021/12/06 04:48:55;;;;;;;67.20;27.50;;;3.40;83.00;;;;;;5038774;28;20065;-33
2021/12/06 04:51:21;;;;;;;59.80;24.50;;;3.40;83.00;;;;;;5038860;28;20035;-36
2021/12/06 04:53:47;;;;;;;58.67;24.92;;;3.40;83.00;;;;;;5038680;28;20418;-36
2021/12/06 04:56:18;;;;;;;60.03;25.15;;;3.40;83.00;;;;;;5038569;28;20040;-46
2021/12/06 04:58:52;;;;;;;;;;;3.40;83.00;;;;;;5038886;28;20095;-34
2021/12/06 05:01:24;;;;;;;67.93;25.02;;;3.40;82.70;;;;;;5038414;28;19916;-46
2021/12/06 05:03:51;;;;;;;57.75;24.33;;;3.40;82.90;;;;;;5038483;28;20037;-33
2021/12/06 05:06:24;;;;;;;61.00;25.95;;;3.30;83.10;;;;;;5038525;28;20437;-45
2021/12/06 05:08:53;;;;;;;73.50;27.98;;;3.30;83.20;;;;;;5038411;28;20299;-33
2021/12/06 05:11:23;;;;;;;68.03;26.85;;;3.40;83.50;;;;;;5037897;28;20053;-33
2021/12/06 05:13:52;;;;;;;64.43;26.55;;;3.40;83.60;;;;;;5037964;28;20433;-33
2021/12/06 05:16:19;;;;;;;69.57;28.88;;;3.40;83.50;;;;;;5038051;28;20033;-33
2021/12/06 05:18:45;;;;;;;64.82;28.42;;;3.40;83.60;;;;;;5037904;28;20485;-46
2021/12/06 05:21:11;;;;;;;68.05;27.58;;;3.40;84.00;;;;;;5037823;28;20083;-46
2021/12/06 05:23:37;;;;;;;69.53;28.05;;;3.40;83.70;;;;;;5037934;28;20038;-35
2021/12/06 05:26:03;;;;;;;66.53;27.95;;;3.40;83.80;;;;;;5037979;28;20029;-46
2021/12/06 05:28:32;;;;;;;64.97;27.88;;;3.40;83.90;;;;;;5037899;28;20076;-46
2021/12/06 05:30:58;;;;;;;67.10;28.33;;;3.40;84.00;;;;;;5037930;28;20338;-46
2021/12/06 05:33:31;;;;;;;78.45;31.67;;;3.50;83.90;;;;;;5037268;28;20111;-34
2021/12/06 05:35:59;;;;;;;69.38;30.15;;;3.50;84.00;;;;;;5037099;28;20111;-33
2021/12/06 05:38:27;;;;;;;58.63;27.00;;;3.50;84.10;;;;;;5037444;28;20330;-33
2021/12/06 05:40:53;;;;;;;71.55;29.65;;;3.50;84.10;;;;;;5037154;28;20027;-35
2021/12/06 05:43:19;;;;;;;72.88;29.05;;;3.50;84.10;;;;;;5037187;28;20417;-36
2021/12/06 05:45:45;;;;;;;67.88;28.92;;;3.60;84.10;;;;;;5037090;28;20040;-45
2021/12/06 05:48:11;;;;;;;74.53;29.83;;;3.60;84.00;;;;;;5037025;28;20326;-46
2021/12/06 05:50:36;;;;;;;61.47;27.02;;;3.60;84.10;;;;;;5037717;28;20110;-46
2021/12/06 05:53:02;;;;;;;63.80;26.52;;;3.60;84.10;;;;;;5037262;28;20030;-46
2021/12/06 05:55:28;;;;;;;57.58;25.77;;;3.60;83.90;;;;;;5037451;28;20047;-34
2021/12/06 05:58:00;;;;;;;60.78;25.10;;;3.60;83.80;;;;;;5037277;28;20053;-46
2021/12/06 06:00:30;;;;;;;60.53;26.05;;;3.60;83.90;;;;;;5037119;28;20370;-34
2021/12/06 06:02:57;;;;;;;54.80;25.40;;;3.60;83.90;;;;;;5037089;28;20034;-34
2021/12/06 06:05:23;;;;;;;66.75;28.23;;;3.60;84.00;;;;;;5037081;28;20037;-46
2021/12/06 06:07:49;;;;;;;72.30;30.38;;;3.60;84.20;;;;;;5036733;28;20083;-35
2021/12/06 06:10:15;;;;;;;60.60;25.27;;;3.60;84.20;;;;;;5036717;28;20136;-46
2021/12/06 06:12:41;;;;;;;63.85;27.23;;;3.70;84.30;;;;;;5036886;28;20471;-46
2021/12/06 06:15:07;;;;;;;64.00;28.13;;;3.70;84.30;;;;;;5036881;28;20041;-34
2021/12/06 06:17:40;;;;;;;62.22;26.88;;;3.70;84.50;;;;;;5036567;28;20033;-34
2021/12/06 06:20:09;;;;;;;74.38;33.47;;;3.70;84.50;;;;;;5037026;28;20033;-46
2021/12/06 06:22:35;;;;;;;59.72;26.63;;;3.70;84.60;;;;;;5036567;28;20033;-46
2021/12/06 06:25:00;;;;;;;67.50;30.88;;;3.80;84.60;;;;;;5036573;28;20045;-34
2021/12/06 06:27:26;;;;;;;68.57;29.73;;;3.80;84.60;;;;;;5036728;28;20302;-35
2021/12/06 06:29:52;;;;;;;67.32;30.77;;;3.80;84.50;;;;;;5036862;28;20179;-46
2021/12/06 06:32:18;;;;;;;72.28;29.77;;;3.80;84.50;;;;;;5036369;28;20033;-46
2021/12/06 06:34:43;;;;;;;60.05;27.00;;;3.80;84.60;;;;;;5036488;28;20104;-46
2021/12/06 06:37:10;;;;;;;116.75;55.67;;;3.80;84.50;;;;;;5036186;28;20056;-46
2021/12/06 06:39:36;;;;;;;75.18;35.55;;;3.80;84.40;;;;;;5035157;28;20124;-36
2021/12/06 06:42:01;;;;;;;80.00;35.78;;;3.90;84.50;;;;;;5036103;28;20385;-46
2021/12/06 06:44:27;;;;;;;64.82;31.30;;;3.90;84.40;;;;;;5036039;28;20037;-46
2021/12/06 06:46:53;;;;;;;76.50;33.40;;;3.90;84.50;;;;;;5035928;28;20029;-46
2021/12/06 06:49:19;;;;;;;67.43;30.92;;;3.90;84.60;;;;;;5035851;28;20041;-46
2021/12/06 06:51:48;;;;;;;66.93;28.60;;;3.90;84.60;;;;;;5036226;28;20083;-46
2021/12/06 06:54:14;;;;;;;66.05;32.47;;;3.90;84.50;;;;;;5036090;28;20128;-46
2021/12/06 06:56:40;;;;;;;68.85;30.33;;;4.00;84.50;;;;;;5036177;28;20116;-34
2021/12/06 06:59:06;;;;;;;76.88;32.10;;;4.00;84.50;;;;;;5036092;28;20041;-34
2021/12/06 07:01:33;;;;;;;69.60;30.23;;;4.00;84.60;;;;;;5036188;28;20030;-46
2021/12/06 07:03:59;;;;;;;64.70;29.75;;;4.00;84.60;;;;;;5034591;28;20045;-35
2021/12/06 07:06:27;;;;;;;67.78;32.67;;;4.00;84.50;;;;;;5034699;28;20046;-46
2021/12/06 07:08:56;;;;;;;67.97;30.02;;;4.10;84.50;;;;;;5035673;28;20041;-35
2021/12/06 07:11:22;;;;;;;71.50;34.17;;;4.10;84.60;;;;;;5035621;28;20050;-46
2021/12/06 07:13:50;;;;;;;65.38;31.00;;;4.10;84.50;;;;;;5036004;28;21694;-46
2021/12/06 07:16:17;;;;;;;63.10;30.70;;;4.10;84.50;;;;;;5036035;28;20120;-33
2021/12/06 07:18:43;;;;;;;59.90;28.40;;;4.10;84.60;;;;;;5036113;28;20112;-35
2021/12/06 07:21:10;;;;;;;66.55;31.70;;;4.10;84.50;;;;;;5035968;28;20294;-46
2021/12/06 07:23:38;;;;;;;68.93;30.20;;;4.20;84.40;;;;;;5035640;28;20061;-34
2021/12/06 07:26:09;;;;;;;68.22;32.53;;;4.20;84.40;;;;;;5035973;28;20109;-35
2021/12/06 07:28:35;;;;;;;68.95;32.58;;;4.20;84.40;;;;;;5035668;28;20106;-46
2021/12/06 07:31:02;;;;;;;69.03;31.23;;;4.20;84.40;;;;;;5035637;28;20037;-46
2021/12/06 07:33:28;;;;;;;87.50;36.42;;;4.20;84.40;;;;;;5035726;28;20033;-34
2021/12/06 07:35:54;;;;;;;70.75;30.50;;;4.20;84.50;;;;;;5035531;28;20036;-34
2021/12/06 07:38:20;;;;;;;80.22;35.28;;;4.20;84.50;;;;;;5035825;28;20053;-34
2021/12/06 07:40:49;;;;;;;72.88;33.35;;;4.20;84.60;;;;;;5035731;28;20025;-35
2021/12/06 07:43:16;;;;;;;80.20;36.53;;;4.20;84.70;;;;;;5035440;28;20075;-34
2021/12/06 07:45:41;;;;;;;86.00;39.22;;;4.20;84.80;;;;;;5035424;28;20026;-46
2021/12/06 07:48:07;;;;;;;76.70;38.58;;;4.20;84.90;;;;;;5035331;28;20025;-46
2021/12/06 07:50:33;;;;;;;67.03;31.20;;;4.30;85.00;;;;;;5035327;28;20444;-34
2021/12/06 07:52:59;;;;;;;88.40;40.92;;;4.30;85.00;;;;;;5035389;28;20302;-46
2021/12/06 07:55:30;;;;;;;63.15;32.53;;;4.30;84.90;;;;;;5035442;28;20044;-34
2021/12/06 07:57:56;;;;;;;66.88;36.28;;;4.30;84.90;;;;;;5035472;28;20104;-34
2021/12/06 08:00:23;;;;;;;58.22;28.00;;;4.30;84.90;;;;;;5037723;28;20048;-37
2021/12/06 08:02:49;;;;;;;52.35;26.23;;;4.40;85.30;;;;;;5038999;28;20029;-35
2021/12/06 08:05:31;;;;;;;57.08;25.10;;;4.40;85.40;;;;;;5039391;28;20091;-46
2021/12/06 08:08:09;;;;;;;63.25;29.63;;;4.40;85.40;;;;;;5039344;28;20039;-36
2021/12/06 08:10:39;;;;;;;90.97;46.28;;;4.40;85.30;;;;;;5038687;28;20067;-34
2021/12/06 08:13:06;;;;;;;94.32;49.72;;;4.40;85.30;;;;;;5039041;28;20037;-34
2021/12/06 08:15:32;;;;;;;93.70;53.33;;;4.50;85.40;;;;;;5038956;28;20030;-46
2021/12/06 08:17:58;;;;;;;69.45;37.10;;;4.50;85.30;;;;;;5038853;28;20346;-35
2021/12/06 08:20:24;;;;;;;87.10;48.33;;;4.50;85.40;;;;;;5039215;28;20105;-45
2021/12/06 08:22:50;;;;;;;75.82;41.67;;;4.60;85.40;;;;;;5038944;28;20476;-35
2021/12/06 08:25:16;;;;;;;56.20;30.45;;;4.60;85.40;;;;;;5039238;28;20121;-45
2021/12/06 08:27:43;;;;;;;47.88;22.67;;;4.70;85.40;;;;;;5038698;28;20062;-46
2021/12/06 08:30:10;;;;;;;68.32;35.38;;;4.70;85.20;;;;;;5038970;28;20037;-46
2021/12/06 08:32:36;;;;;;;92.15;46.40;;;4.70;85.20;;;;;;5038868;28;20026;-47
2021/12/06 08:35:03;;;;;;;75.20;36.92;;;4.70;85.20;;;;;;5038929;28;20312;-35
2021/12/06 08:37:29;;;;;;;57.92;24.90;;;4.70;85.20;;;;;;5038626;28;20032;-46
2021/12/06 08:39:55;;;;;;;45.33;21.75;;;4.80;85.00;;;;;;5038880;28;20030;-36
2021/12/06 08:42:21;;;;;;;39.92;20.13;;;4.80;85.00;;;;;;5038881;28;20430;-34
2021/12/06 08:44:47;;;;;;;42.83;21.23;;;4.80;84.90;;;;;;5038375;28;20037;-46
2021/12/06 08:47:15;;;;;;;41.40;20.55;;;4.90;84.90;;;;;;5038694;28;20025;-46
2021/12/06 08:49:41;;;;;;;38.22;19.73;;;4.90;84.80;;;;;;5038562;28;20038;-46
2021/12/06 08:52:07;;;;;;;42.67;19.77;;;4.90;84.80;;;;;;5038767;28;20026;-35
2021/12/06 08:54:33;;;;;;;37.53;19.30;;;4.90;84.70;;;;;;5038503;28;20056;-34
2021/12/06 08:57:03;;;;;;;42.50;22.60;;;5.00;84.70;;;;;;5038093;28;20025;-34
2021/12/06 08:59:29;;;;;;;46.03;22.75;;;5.00;84.50;;;;;;5038469;28;20037;-46
2021/12/06 09:01:57;;;;;;;88.07;36.53;;;5.00;84.40;;;;;;5038078;28;20471;-44
2021/12/06 09:04:25;;;;;;;53.72;28.25;;;5.00;84.40;;;;;;5038242;28;20357;-34
2021/12/06 09:06:53;;;;;;;150.77;77.68;;;5.00;84.30;;;;;;5038085;28;20372;-46
2021/12/06 09:09:21;;;;;;;113.78;61.80;;;5.00;84.30;;;;;;5037705;28;20095;-35
2021/12/06 09:11:48;;;;;;;98.80;48.83;;;5.10;84.40;;;;;;5037211;28;20037;-34
2021/12/06 09:14:16;;;;;;;130.02;64.80;;;5.10;84.50;;;;;;5037872;28;20036;-46
2021/12/06 09:16:42;;;;;;;115.53;57.88;;;5.10;84.50;;;;;;5037521;28;20101;-34
2021/12/06 09:19:10;;;;;;;160.15;87.30;;;5.10;84.50;;;;;;5037631;28;20040;-47
2021/12/06 09:21:38;;;;;;;144.88;74.03;;;5.20;84.60;;;;;;5037663;28;20453;-46
2021/12/06 09:24:06;;;;;;;73.63;40.95;;;5.10;84.50;;;;;;5037703;28;20041;-46
2021/12/06 09:26:32;;;;;;;62.88;34.25;;;5.20;84.50;;;;;;5037397;28;20029;-46
2021/12/06 09:28:58;;;;;;;72.07;37.85;;;5.20;84.40;;;;;;5037556;28;20095;-46
2021/12/06 09:31:24;;;;;;;43.85;21.85;;;5.20;84.40;;;;;;5037917;28;20112;-36
2021/12/06 09:33:50;;;;;;;52.85;28.95;;;5.20;84.40;;;;;;5037550;28;20037;-35
2021/12/06 09:36:18;;;;;;;45.13;26.40;;;5.30;84.30;;;;;;5037518;28;20033;-34
2021/12/06 09:38:44;;;;;;;41.50;21.73;;;5.30;84.30;;;;;;5037644;28;20388;-34
2021/12/06 09:41:18;;;;;;;45.22;21.20;;;5.30;84.10;;;;;;5037230;28;20075;-34
2021/12/06 09:43:44;;;;;;;36.97;18.35;;;5.30;84.00;;;;;;5037558;28;20053;-34
2021/12/06 09:46:12;;;;;;;45.38;25.33;;;5.40;84.00;;;;;;5037197;28;20347;-35
2021/12/06 09:48:39;;;;;;;51.53;27.33;;;5.40;84.00;;;;;;5037295;28;20112;-34
2021/12/06 09:51:13;;;;;;;40.20;22.52;;;5.40;84.00;;;;;;5036300;28;20025;-46
2021/12/06 09:53:42;;;;;;;49.33;27.00;;;5.40;84.10;;;;;;5037321;28;20033;-46
2021/12/06 09:56:12;;;;;;;66.43;35.15;;;5.40;84.00;;;;;;5037406;28;20057;-35
2021/12/06 09:58:39;;;;;;;58.67;29.42;;;5.50;84.00;;;;;;5036906;28;20030;-34
2021/12/06 10:01:27;;;;;;;60.88;31.25;;;5.50;83.90;;;;;;5036861;28;20356;-35
2021/12/06 10:03:55;;;;;;;57.28;29.85;;;5.50;83.60;;;;;;5037086;28;20057;-46
2021/12/06 10:06:22;;;;;;;45.63;25.23;;;5.50;83.80;;;;;;5036708;28;20432;-47
2021/12/06 10:08:51;;;;;;;46.20;25.38;;;5.50;83.90;;;;;;5036882;28;20041;-35
2021/12/06 10:11:20;;;;;;;41.17;22.98;;;5.50;83.80;;;;;;5036430;28;20111;-34
2021/12/06 10:13:47;;;;;;;43.08;24.23;;;5.50;83.80;;;;;;5036802;28;20041;-34
2021/12/06 10:16:13;;;;;;;52.10;28.30;;;5.60;83.90;;;;;;5036422;28;20025;-46
2021/12/06 10:18:40;;;;;;;46.13;24.50;;;5.50;83.80;;;;;;5036707;28;20303;-35
2021/12/06 10:21:07;;;;;;;37.10;22.60;;;5.60;83.90;;;;;;5036804;28;20025;-46
2021/12/06 10:23:37;;;;;;;54.55;32.65;;;5.60;84.10;;;;;;5035732;28;20041;-46
2021/12/06 10:26:05;;;;;;;75.75;40.55;;;5.60;83.90;;;;;;5036761;28;20091;-46
2021/12/06 10:28:31;;;;;;;52.13;27.45;;;5.60;83.90;;;;;;5036549;28;20093;-46
2021/12/06 10:31:04;;;;;;;66.82;36.45;;;5.60;83.90;;;;;;5033530;28;20434;-34
2021/12/06 10:33:36;;;;;;;96.32;53.20;;;5.70;84.00;;;;;;5054874;28;20120;-34
2021/12/06 10:36:05;;;;;;;64.05;37.25;;;5.70;84.10;;;;;;5052850;28;20037;-47
2021/12/06 10:38:36;;;;;;;45.88;24.33;;;5.70;84.10;;;;;;5055707;28;20078;-47
2021/12/06 10:41:12;;;;;;;59.10;37.42;;;5.70;84.10;;;;;;5054702;28;20059;-34
2021/12/06 10:43:39;;;;;;;82.40;53.90;;;5.70;84.10;;;;;;5055153;28;20029;-46
2021/12/06 10:46:07;;;;;;;70.53;45.88;;;5.80;84.00;;;;;;5054803;28;20039;-45
2021/12/06 10:48:37;;;;;;;45.08;28.23;;;5.80;83.90;;;;;;5054853;28;20052;-35
2021/12/06 10:51:19;;;;;;;34.90;20.73;;;5.80;83.80;;;;;;5055457;28;20401;-47
2021/12/06 10:53:59;;;;;;;38.10;22.58;;;5.80;83.70;;;;;;5055482;28;20037;-46
2021/12/06 10:56:37;;;;;;;37.35;21.20;;;5.80;83.70;;;;;;5055306;28;20040;-35
2021/12/06 10:59:10;;;;;;;27.73;14.43;;;5.80;83.50;;;;;;5055184;28;20040;-35
2021/12/06 11:01:35;;;;;;;25.25;13.65;;;5.80;83.50;;;;;;5054788;28;20033;-35
2021/12/06 11:04:06;;;;;;;22.15;12.23;;;5.80;83.50;;;;;;5054546;28;20150;-46
2021/12/06 11:06:42;;;;;;;30.45;16.73;;;5.80;83.60;;;;;;5054927;28;20020;-46
2021/12/06 11:09:11;;;;;;;22.80;14.35;;;5.70;83.50;;;;;;5055451;28;20068;-46
2021/12/06 11:11:43;;;;;;;29.48;18.35;;;5.70;83.50;;;;;;5055046;28;20101;-46
2021/12/06 11:14:15;;;;;;;22.42;13.32;;;5.80;83.50;;;;;;5055212;28;20044;-35
2021/12/06 11:16:47;;;;;;;28.95;14.88;;;5.70;83.50;;;;;;5054979;28;20037;-46
2021/12/06 11:19:15;;;;;;;33.33;18.95;;;5.70;83.50;;;;;;5054966;28;20036;-35
2021/12/06 11:21:52;;;;;;;26.77;15.80;;;5.70;83.50;;;;;;5054634;28;20025;-46
2021/12/06 11:24:21;;;;;;;37.15;21.02;;;5.70;83.40;;;;;;5055003;28;20037;-47
2021/12/06 11:26:47;;;;;;;29.98;18.65;;;5.70;83.50;;;;;;5054649;28;20090;-46
2021/12/06 11:29:20;;;;;;;22.45;13.63;;;5.70;83.50;;;;;;5054816;28;20409;-46
2021/12/06 11:31:54;;;;;;;29.15;17.20;;;5.70;83.60;;;;;;5054834;28;20033;-35
2021/12/06 11:34:20;;;;;;;25.25;15.40;;;5.60;83.50;;;;;;5057324;28;20359;-45
2021/12/06 11:36:46;;;;;;;19.98;13.30;;;5.60;83.60;;;;;;5058646;28;20436;-46
2021/12/06 11:39:19;;;;;;;21.10;14.38;;;5.60;84.10;;;;;;5057800;28;20037;-46
2021/12/06 11:41:48;;;;;;;21.00;13.35;;;5.60;83.50;;;;;;5058534;28;20036;-46
2021/12/06 11:44:18;;;;;;;18.98;10.73;;;5.60;83.60;;;;;;5059256;28;20037;-47
2021/12/06 11:46:45;;;;;;;15.57;8.45;;;5.50;83.60;;;;;;5058409;28;20044;-47
2021/12/06 11:51:18;;;;;;;17.08;8.52;;;5.50;82.90;;;;;;5072256;28;20649;-40
2021/12/06 11:53:48;;;;;;;19.88;8.45;;;5.50;83.60;;;;;;5071839;28;20035;-32
2021/12/06 11:56:19;;;;;;;17.63;8.70;;;5.50;83.90;;;;;;5071722;28;20058;-31
2021/12/06 11:58:54;;;;;;;20.58;11.10;;;5.50;84.20;;;;;;5072266;28;20021;-39
2021/12/06 12:01:30;;;;;;;14.88;8.27;;;5.50;84.30;;;;;;5071922;28;20115;-40
2021/12/06 12:04:08;;;;;;;22.52;10.90;;;5.50;84.40;;;;;;5072122;28;20039;-31
2021/12/06 12:06:40;;;;;;;18.50;8.70;;;5.50;84.50;;;;;;5072441;28;20037;-31
2021/12/06 12:09:07;;;;;;;13.95;7.63;;;5.50;84.50;;;;;;5072156;28;20037;-31
2021/12/06 12:12:13;;;;;;;21.90;11.20;;;5.50;84.60;;;;;;5072238;28;20031;-40
2021/12/06 12:14:49;;;;;;;22.13;11.82;;;5.50;84.50;;;;;;5072338;28;20395;-39
2021/12/06 12:17:40;;;;;;;16.02;8.63;;;5.50;84.70;;;;;;5070698;28;20451;-31
2021/12/06 12:20:10;;;;;;;19.75;9.18;;;5.50;84.70;;;;;;5072269;28;20033;-32
2021/12/06 12:22:38;;;;;;;15.35;7.72;;;5.40;84.80;;;;;;5072237;28;20117;-39
2021/12/06 12:25:09;;;;;;;13.90;7.88;;;5.50;84.90;;;;;;5071940;28;20045;-40
2021/12/06 12:30:06;;;;;;;17.50;9.02;;;5.40;84.90;;;;;;5071956;28;20036;-32
2021/12/06 12:32:31;;;;;;;16.60;7.75;;;5.40;85.00;;;;;;5071731;28;20029;-31
2021/12/06 12:35:06;;;;;;;17.75;9.98;;;5.40;85.00;;;;;;5072050;28;20077;-31
2021/12/06 12:37:34;;;;;;;20.92;12.05;;;5.40;85.20;;;;;;5071860;28;20025;-39
2021/12/06 12:40:04;;;;;;;24.58;12.93;;;5.40;85.30;;;;;;5072395;28;20032;-39
2021/12/06 12:42:30;;;;;;;19.70;11.38;;;5.40;85.40;;;;;;5072090;28;20037;-39
2021/12/06 12:44:59;;;;;;;26.73;14.68;;;5.40;85.40;;;;;;5072169;28;20059;-32
2021/12/06 12:47:27;;;;;;;25.60;14.65;;;5.40;85.30;;;;;;5071842;28;20123;-39
2021/12/06 12:49:57;;;;;;;22.23;12.50;;;5.40;85.30;;;;;;5071643;28;20048;-38
2021/12/06 12:52:40;;;;;;;22.23;10.75;;;5.40;85.40;;;;;;5072232;28;20024;-47
2021/12/06 12:55:49;;;;;;;25.42;12.75;;;5.40;85.80;;;;;;5072097;28;20356;-35
2021/12/06 12:58:23;;;;;;;21.25;12.35;;;5.30;85.30;;;;;;5071656;28;20082;-35
2021/12/06 13:00:58;;;;;;;19.40;10.10;;;5.30;85.60;;;;;;5068691;28;20115;-47